sensor_id;sensor_type;location;lat;lon;timestamp;P1;durP1;ratioP1;P2;durP2;ratioP2
40847;SDS011;26570;50.962;5.340;2023-07-28T00:10:16;2.70;;;0.30;;
40847;SDS011;26570;50.962;5.340;2023-07-28T00:13:51;0.75;;;0.40;;
40847;SDS011;26570;50.962;5.340;2023-07-28T00:17:12;0.70;;;0.30;;
40847;SDS011;26570;50.962;5.340;2023-07-28T00:25:07;3.42;;;0.40;;
40847;SDS011;26570;50.962;5.340;2023-07-28T00:32:51;6.63;;;0.57;;
40847;SDS011;26570;50.962;5.340;2023-07-28T00:36:41;3.00;;;0.50;;
40847;SDS011;26570;50.962;5.340;2023-07-28T00:40:19;1.17;;;0.50;;
40847;SDS011;26570;50.962;5.340;2023-07-28T00:44:06;1.55;;;0.50;;
40847;SDS011;26570;50.962;5.340;2023-07-28T00:47:30;1.90;;;0.60;;
40847;SDS011;26570;50.962;5.340;2023-07-28T01:02:09;1.85;;;0.60;;
40847;SDS011;26570;50.962;5.340;2023-07-28T01:09:21;3.38;;;0.60;;
40847;SDS011;26570;50.962;5.340;2023-07-28T01:12:56;2.80;;;0.60;;
40847;SDS011;26570;50.962;5.340;2023-07-28T01:19:25;1.95;;;0.70;;
40847;SDS011;26570;50.962;5.340;2023-07-28T01:30:07;3.05;;;1.15;;
40847;SDS011;26570;50.962;5.340;2023-07-28T01:33:52;1.50;;;0.70;;
40847;SDS011;26570;50.962;5.340;2023-07-28T01:41:21;2.00;;;0.65;;
40847;SDS011;26570;50.962;5.340;2023-07-28T01:44:57;2.65;;;0.63;;
40847;SDS011;26570;50.962;5.340;2023-07-28T01:51:27;1.50;;;0.70;;
40847;SDS011;26570;50.962;5.340;2023-07-28T01:54:39;2.33;;;0.47;;
40847;SDS011;26570;50.962;5.340;2023-07-28T02:05:54;2.42;;;0.40;;
40847;SDS011;26570;50.962;5.340;2023-07-28T02:09:44;1.73;;;0.50;;
40847;SDS011;26570;50.962;5.340;2023-07-28T02:21:13;1.77;;;0.70;;
40847;SDS011;26570;50.962;5.340;2023-07-28T02:24:36;1.57;;;0.70;;
40847;SDS011;26570;50.962;5.340;2023-07-28T02:28:08;1.57;;;0.70;;
40847;SDS011;26570;50.962;5.340;2023-07-28T02:32:06;3.53;;;0.73;;
40847;SDS011;26570;50.962;5.340;2023-07-28T02:35:49;1.48;;;0.80;;
40847;SDS011;26570;50.962;5.340;2023-07-28T02:39:06;1.80;;;0.88;;
40847;SDS011;26570;50.962;5.340;2023-07-28T02:42:05;2.47;;;0.80;;
40847;SDS011;26570;50.962;5.340;2023-07-28T02:45:19;5.28;;;0.90;;
40847;SDS011;26570;50.962;5.340;2023-07-28T02:48:55;2.75;;;0.73;;
40847;SDS011;26570;50.962;5.340;2023-07-28T02:52:46;2.13;;;0.80;;
40847;SDS011;26570;50.962;5.340;2023-07-28T02:55:42;4.68;;;0.77;;
40847;SDS011;26570;50.962;5.340;2023-07-28T02:59:35;1.60;;;0.70;;
40847;SDS011;26570;50.962;5.340;2023-07-28T03:03:14;4.75;;;0.98;;
40847;SDS011;26570;50.962;5.340;2023-07-28T03:11:09;2.75;;;1.20;;
40847;SDS011;26570;50.962;5.340;2023-07-28T03:14:53;2.50;;;1.13;;
40847;SDS011;26570;50.962;5.340;2023-07-28T03:18:40;3.67;;;1.20;;
40847;SDS011;26570;50.962;5.340;2023-07-28T03:22:43;2.42;;;1.30;;
40847;SDS011;26570;50.962;5.340;2023-07-28T03:26:25;3.05;;;1.50;;
40847;SDS011;26570;50.962;5.340;2023-07-28T03:29:58;3.22;;;1.63;;
40847;SDS011;26570;50.962;5.340;2023-07-28T03:37:34;6.65;;;2.30;;
40847;SDS011;26570;50.962;5.340;2023-07-28T03:40:59;5.43;;;2.47;;
40847;SDS011;26570;50.962;5.340;2023-07-28T03:44:12;5.57;;;2.20;;
40847;SDS011;26570;50.962;5.340;2023-07-28T03:56:05;9.27;;;3.60;;
40847;SDS011;26570;50.962;5.340;2023-07-28T04:03:30;11.35;;;4.00;;
40847;SDS011;26570;50.962;5.340;2023-07-28T04:14:35;9.10;;;4.13;;
40847;SDS011;26570;50.962;5.340;2023-07-28T04:18:08;7.95;;;4.10;;
40847;SDS011;26570;50.962;5.340;2023-07-28T04:21:48;7.25;;;4.25;;
40847;SDS011;26570;50.962;5.340;2023-07-28T04:32:54;7.30;;;4.20;;
40847;SDS011;26570;50.962;5.340;2023-07-28T04:44:33;9.38;;;5.28;;
40847;SDS011;26570;50.962;5.340;2023-07-28T04:47:51;11.98;;;5.20;;
40847;SDS011;26570;50.962;5.340;2023-07-28T04:55:56;7.53;;;3.92;;
40847;SDS011;26570;50.962;5.340;2023-07-28T05:03:55;9.82;;;3.72;;
40847;SDS011;26570;50.962;5.340;2023-07-28T05:07:44;5.78;;;3.50;;
40847;SDS011;26570;50.962;5.340;2023-07-28T05:11:31;6.43;;;3.05;;
40847;SDS011;26570;50.962;5.340;2023-07-28T05:15:35;3.17;;;2.17;;
40847;SDS011;26570;50.962;5.340;2023-07-28T05:19:29;5.28;;;2.45;;
40847;SDS011;26570;50.962;5.340;2023-07-28T05:26:57;6.03;;;1.92;;
40847;SDS011;26570;50.962;5.340;2023-07-28T05:37:03;3.72;;;1.20;;
40847;SDS011;26570;50.962;5.340;2023-07-28T05:48:12;5.55;;;1.95;;
40847;SDS011;26570;50.962;5.340;2023-07-28T05:55:36;3.00;;;1.00;;
40847;SDS011;26570;50.962;5.340;2023-07-28T06:03:36;3.08;;;1.40;;
40847;SDS011;26570;50.962;5.340;2023-07-28T06:07:07;4.25;;;1.05;;
40847;SDS011;26570;50.962;5.340;2023-07-28T06:10:50;4.45;;;0.80;;
40847;SDS011;26570;50.962;5.340;2023-07-28T06:22:19;1.83;;;0.80;;
40847;SDS011;26570;50.962;5.340;2023-07-28T06:33:57;6.00;;;0.75;;
40847;SDS011;26570;50.962;5.340;2023-07-28T06:41:52;1.48;;;0.70;;
40847;SDS011;26570;50.962;5.340;2023-07-28T06:45:59;3.03;;;0.70;;
40847;SDS011;26570;50.962;5.340;2023-07-28T06:49:16;4.15;;;0.88;;
40847;SDS011;26570;50.962;5.340;2023-07-28T06:52:26;2.78;;;1.30;;
40847;SDS011;26570;50.962;5.340;2023-07-28T06:56:09;2.53;;;0.68;;
40847;SDS011;26570;50.962;5.340;2023-07-28T07:00:06;1.55;;;0.60;;
40847;SDS011;26570;50.962;5.340;2023-07-28T07:12:00;1.13;;;0.40;;
40847;SDS011;26570;50.962;5.340;2023-07-28T07:22:30;1.63;;;0.20;;
40847;SDS011;26570;50.962;5.340;2023-07-28T07:26:19;1.05;;;0.20;;
40847;SDS011;26570;50.962;5.340;2023-07-28T07:30:22;0.55;;;0.10;;
40847;SDS011;26570;50.962;5.340;2023-07-28T07:34:14;1.13;;;0.20;;
40847;SDS011;26570;50.962;5.340;2023-07-28T07:41:45;2.00;;;0.20;;
40847;SDS011;26570;50.962;5.340;2023-07-28T07:56:48;1.05;;;0.10;;
40847;SDS011;26570;50.962;5.340;2023-07-28T08:03:51;1.05;;;0.10;;
40847;SDS011;26570;50.962;5.340;2023-07-28T08:07:20;0.93;;;0.10;;
40847;SDS011;26570;50.962;5.340;2023-07-28T08:10:38;2.25;;;0.60;;
40847;SDS011;26570;50.962;5.340;2023-07-28T08:13:44;1.45;;;0.10;;
40847;SDS011;26570;50.962;5.340;2023-07-28T08:17:10;0.55;;;0.10;;
40847;SDS011;26570;50.962;5.340;2023-07-28T08:20:12;2.97;;;0.20;;
40847;SDS011;26570;50.962;5.340;2023-07-28T08:23:33;1.20;;;0.10;;
40847;SDS011;26570;50.962;5.340;2023-07-28T08:26:30;0.75;;;0.20;;
40847;SDS011;26570;50.962;5.340;2023-07-28T08:41:29;1.60;;;0.20;;
40847;SDS011;26570;50.962;5.340;2023-07-28T08:44:34;0.40;;;0.20;;
40847;SDS011;26570;50.962;5.340;2023-07-28T08:48:05;3.10;;;0.25;;
40847;SDS011;26570;50.962;5.340;2023-07-28T08:51:24;0.50;;;0.17;;
40847;SDS011;26570;50.962;5.340;2023-07-28T08:54:57;2.55;;;0.20;;
40847;SDS011;26570;50.962;5.340;2023-07-28T08:58:22;0.40;;;0.17;;
40847;SDS011;26570;50.962;5.340;2023-07-28T09:01:13;0.25;;;0.10;;
40847;SDS011;26570;50.962;5.340;2023-07-28T09:04:44;0.30;;;0.10;;
40847;SDS011;26570;50.962;5.340;2023-07-28T09:08:06;0.17;;;0.00;;
40847;SDS011;26570;50.962;5.340;2023-07-28T09:11:08;0.20;;;0.00;;
40847;SDS011;26570;50.962;5.340;2023-07-28T09:14:33;0.17;;;0.00;;
40847;SDS011;26570;50.962;5.340;2023-07-28T09:18:24;0.00;;;0.00;;
40847;SDS011;26570;50.962;5.340;2023-07-28T09:22:01;1.27;;;0.08;;
40847;SDS011;26570;50.962;5.340;2023-07-28T09:25:34;0.52;;;0.10;;
40847;SDS011;26570;50.962;5.340;2023-07-28T09:32:31;0.30;;;0.10;;
40847;SDS011;26570;50.962;5.340;2023-07-28T09:39:36;0.08;;;0.08;;
40847;SDS011;26570;50.962;5.340;2023-07-28T09:43:01;0.45;;;0.10;;
40847;SDS011;26570;50.962;5.340;2023-07-28T09:46:08;0.40;;;0.20;;
40847;SDS011;26570;50.962;5.340;2023-07-28T09:49:36;0.40;;;0.27;;
40847;SDS011;26570;50.962;5.340;2023-07-28T09:52:28;1.95;;;0.15;;
40847;SDS011;26570;50.962;5.340;2023-07-28T09:55:59;0.40;;;0.20;;
40847;SDS011;26570;50.962;5.340;2023-07-28T09:59:09;0.60;;;0.20;;
40847;SDS011;26570;50.962;5.340;2023-07-28T10:10:18;1.00;;;0.20;;
40847;SDS011;26570;50.962;5.340;2023-07-28T10:13:47;0.70;;;0.20;;
40847;SDS011;26570;50.962;5.340;2023-07-28T10:17:00;0.85;;;0.20;;
40847;SDS011;26570;50.962;5.340;2023-07-28T10:20:31;0.60;;;0.28;;
40847;SDS011;26570;50.962;5.340;2023-07-28T10:27:29;0.63;;;0.20;;
40847;SDS011;26570;50.962;5.340;2023-07-28T10:31:29;2.90;;;0.20;;
40847;SDS011;26570;50.962;5.340;2023-07-28T10:42:36;0.10;;;0.00;;
40847;SDS011;26570;50.962;5.340;2023-07-28T10:45:46;0.43;;;0.10;;
40847;SDS011;26570;50.962;5.340;2023-07-28T10:49:07;0.60;;;0.10;;
40847;SDS011;26570;50.962;5.340;2023-07-28T10:56:34;0.47;;;0.10;;
40847;SDS011;26570;50.962;5.340;2023-07-28T10:59:27;0.28;;;0.15;;
40847;SDS011;26570;50.962;5.340;2023-07-28T11:02:51;0.30;;;0.10;;
40847;SDS011;26570;50.962;5.340;2023-07-28T11:06:35;0.35;;;0.17;;
40847;SDS011;26570;50.962;5.340;2023-07-28T11:09:30;0.17;;;0.10;;
40847;SDS011;26570;50.962;5.340;2023-07-28T11:13:22;0.30;;;0.10;;
40847;SDS011;26570;50.962;5.340;2023-07-28T11:16:38;0.50;;;0.20;;
40847;SDS011;26570;50.962;5.340;2023-07-28T11:20:29;0.60;;;0.30;;
40847;SDS011;26570;50.962;5.340;2023-07-28T11:23:46;1.27;;;0.30;;
40847;SDS011;26570;50.962;5.340;2023-07-28T11:30:46;0.55;;;0.35;;
40847;SDS011;26570;50.962;5.340;2023-07-28T11:34:12;1.65;;;0.60;;
40847;SDS011;26570;50.962;5.340;2023-07-28T11:37:07;0.70;;;0.30;;
40847;SDS011;26570;50.962;5.340;2023-07-28T11:40:52;0.55;;;0.30;;
40847;SDS011;26570;50.962;5.340;2023-07-28T11:44:14;0.55;;;0.30;;
40847;SDS011;26570;50.962;5.340;2023-07-28T11:51:40;1.00;;;0.30;;
40847;SDS011;26570;50.962;5.340;2023-07-28T11:55:10;0.82;;;0.30;;
40847;SDS011;26570;50.962;5.340;2023-07-28T11:58:41;0.35;;;0.10;;
40847;SDS011;26570;50.962;5.340;2023-07-28T12:02:06;0.20;;;0.10;;
40847;SDS011;26570;50.962;5.340;2023-07-28T12:05:58;1.48;;;0.00;;
40847;SDS011;26570;50.962;5.340;2023-07-28T12:09:10;0.75;;;0.10;;
40847;SDS011;26570;50.962;5.340;2023-07-28T12:13:05;0.43;;;0.10;;
40847;SDS011;26570;50.962;5.340;2023-07-28T12:23:45;0.45;;;0.10;;
40847;SDS011;26570;50.962;5.340;2023-07-28T12:27:24;0.22;;;0.10;;
40847;SDS011;26570;50.962;5.340;2023-07-28T12:30:58;0.10;;;0.08;;
40847;SDS011;26570;50.962;5.340;2023-07-28T12:33:55;0.35;;;0.10;;
40847;SDS011;26570;50.962;5.340;2023-07-28T12:41:53;0.40;;;0.20;;
40847;SDS011;26570;50.962;5.340;2023-07-28T12:45:15;0.20;;;0.10;;
40847;SDS011;26570;50.962;5.340;2023-07-28T12:48:30;0.88;;;0.10;;
40847;SDS011;26570;50.962;5.340;2023-07-28T12:52:09;0.20;;;0.10;;
40847;SDS011;26570;50.962;5.340;2023-07-28T12:55:43;0.25;;;0.10;;
40847;SDS011;26570;50.962;5.340;2023-07-28T12:59:10;1.63;;;0.10;;
40847;SDS011;26570;50.962;5.340;2023-07-28T13:02:27;0.13;;;0.00;;
40847;SDS011;26570;50.962;5.340;2023-07-28T13:05:25;0.30;;;0.10;;
40847;SDS011;26570;50.962;5.340;2023-07-28T13:12:14;1.40;;;0.10;;
40847;SDS011;26570;50.962;5.340;2023-07-28T13:15:44;2.17;;;0.10;;
40847;SDS011;26570;50.962;5.340;2023-07-28T13:18:54;0.75;;;0.10;;
40847;SDS011;26570;50.962;5.340;2023-07-28T13:21:49;0.88;;;0.10;;
40847;SDS011;26570;50.962;5.340;2023-07-28T13:25:07;0.40;;;0.10;;
40847;SDS011;26570;50.962;5.340;2023-07-28T13:28:01;0.20;;;0.10;;
40847;SDS011;26570;50.962;5.340;2023-07-28T13:31:25;0.20;;;0.10;;
40847;SDS011;26570;50.962;5.340;2023-07-28T13:34:22;0.45;;;0.10;;
40847;SDS011;26570;50.962;5.340;2023-07-28T13:44:13;0.38;;;0.20;;
40847;SDS011;26570;50.962;5.340;2023-07-28T13:47:27;2.95;;;0.20;;
40847;SDS011;26570;50.962;5.340;2023-07-28T13:50:51;0.30;;;0.13;;
40847;SDS011;26570;50.962;5.340;2023-07-28T13:54:06;0.75;;;0.20;;
40847;SDS011;26570;50.962;5.340;2023-07-28T13:57:09;4.13;;;0.30;;
40847;SDS011;26570;50.962;5.340;2023-07-28T14:00:48;0.55;;;0.20;;
40847;SDS011;26570;50.962;5.340;2023-07-28T14:04:11;1.00;;;0.10;;
40847;SDS011;26570;50.962;5.340;2023-07-28T14:07:39;1.83;;;0.20;;
40847;SDS011;26570;50.962;5.340;2023-07-28T14:11:05;0.70;;;0.15;;
40847;SDS011;26570;50.962;5.340;2023-07-28T14:14:10;0.20;;;0.10;;
40847;SDS011;26570;50.962;5.340;2023-07-28T14:21:47;0.55;;;0.10;;
40847;SDS011;26570;50.962;5.340;2023-07-28T14:24:57;1.13;;;0.15;;
40847;SDS011;26570;50.962;5.340;2023-07-28T14:28:13;0.50;;;0.20;;
40847;SDS011;26570;50.962;5.340;2023-07-28T14:31:54;2.22;;;0.20;;
40847;SDS011;26570;50.962;5.340;2023-07-28T14:34:52;0.50;;;0.20;;
40847;SDS011;26570;50.962;5.340;2023-07-28T14:38:01;0.45;;;0.20;;
40847;SDS011;26570;50.962;5.340;2023-07-28T14:41:10;0.55;;;0.10;;
40847;SDS011;26570;50.962;5.340;2023-07-28T14:44:35;0.60;;;0.20;;
40847;SDS011;26570;50.962;5.340;2023-07-28T14:47:49;0.60;;;0.20;;
40847;SDS011;26570;50.962;5.340;2023-07-28T14:51:01;4.18;;;0.20;;
40847;SDS011;26570;50.962;5.340;2023-07-28T14:56:56;2.45;;;0.20;;
40847;SDS011;26570;50.962;5.340;2023-07-28T15:00:03;0.50;;;0.20;;
40847;SDS011;26570;50.962;5.340;2023-07-28T15:03:24;1.98;;;0.20;;
40847;SDS011;26570;50.962;5.340;2023-07-28T15:06:14;1.50;;;0.30;;
40847;SDS011;26570;50.962;5.340;2023-07-28T15:09:26;0.47;;;0.20;;
40847;SDS011;26570;50.962;5.340;2023-07-28T15:15:58;0.65;;;0.20;;
40847;SDS011;26570;50.962;5.340;2023-07-28T15:19:29;1.30;;;0.30;;
40847;SDS011;26570;50.962;5.340;2023-07-28T15:22:24;0.60;;;0.20;;
40847;SDS011;26570;50.962;5.340;2023-07-28T15:25:22;0.70;;;0.30;;
40847;SDS011;26570;50.962;5.340;2023-07-28T15:28:21;0.70;;;0.25;;
40847;SDS011;26570;50.962;5.340;2023-07-28T15:34:53;0.80;;;0.30;;
40847;SDS011;26570;50.962;5.340;2023-07-28T15:38:07;0.30;;;0.20;;
40847;SDS011;26570;50.962;5.340;2023-07-28T15:41:24;1.00;;;0.20;;
40847;SDS011;26570;50.962;5.340;2023-07-28T15:44:20;0.63;;;0.20;;
40847;SDS011;26570;50.962;5.340;2023-07-28T15:51:08;0.40;;;0.10;;
40847;SDS011;26570;50.962;5.340;2023-07-28T15:54:45;0.40;;;0.20;;
40847;SDS011;26570;50.962;5.340;2023-07-28T15:58:09;1.63;;;0.20;;
40847;SDS011;26570;50.962;5.340;2023-07-28T16:01:21;0.50;;;0.20;;
40847;SDS011;26570;50.962;5.340;2023-07-28T16:04:46;0.65;;;0.20;;
40847;SDS011;26570;50.962;5.340;2023-07-28T16:08:05;0.60;;;0.20;;
40847;SDS011;26570;50.962;5.340;2023-07-28T16:11:12;1.50;;;0.20;;
40847;SDS011;26570;50.962;5.340;2023-07-28T16:17:16;0.45;;;0.13;;
40847;SDS011;26570;50.962;5.340;2023-07-28T16:20:08;0.90;;;0.20;;
40847;SDS011;26570;50.962;5.340;2023-07-28T16:23:55;3.78;;;0.40;;
40847;SDS011;26570;50.962;5.340;2023-07-28T16:26:52;2.40;;;0.30;;
40847;SDS011;26570;50.962;5.340;2023-07-28T16:30:09;0.65;;;0.20;;
40847;SDS011;26570;50.962;5.340;2023-07-28T16:33:13;0.93;;;0.20;;
40847;SDS011;26570;50.962;5.340;2023-07-28T16:36:18;0.52;;;0.20;;
40847;SDS011;26570;50.962;5.340;2023-07-28T16:39:11;2.40;;;0.20;;
40847;SDS011;26570;50.962;5.340;2023-07-28T16:42:04;0.73;;;0.20;;
40847;SDS011;26570;50.962;5.340;2023-07-28T16:44:59;0.60;;;0.20;;
40847;SDS011;26570;50.962;5.340;2023-07-28T16:47:54;0.73;;;0.10;;
40847;SDS011;26570;50.962;5.340;2023-07-28T16:50:54;0.38;;;0.20;;
40847;SDS011;26570;50.962;5.340;2023-07-28T16:54:31;0.60;;;0.20;;
40847;SDS011;26570;50.962;5.340;2023-07-28T16:57:50;0.57;;;0.20;;
40847;SDS011;26570;50.962;5.340;2023-07-28T17:01:03;0.43;;;0.10;;
40847;SDS011;26570;50.962;5.340;2023-07-28T17:07:22;0.95;;;0.20;;
40847;SDS011;26570;50.962;5.340;2023-07-28T17:10:39;0.70;;;0.20;;
40847;SDS011;26570;50.962;5.340;2023-07-28T17:13:32;1.10;;;0.30;;
40847;SDS011;26570;50.962;5.340;2023-07-28T17:16:32;0.40;;;0.20;;
40847;SDS011;26570;50.962;5.340;2023-07-28T17:19:29;0.40;;;0.20;;
40847;SDS011;26570;50.962;5.340;2023-07-28T17:23:12;0.70;;;0.20;;
40847;SDS011;26570;50.962;5.340;2023-07-28T17:26:21;0.40;;;0.20;;
40847;SDS011;26570;50.962;5.340;2023-07-28T17:29:36;0.70;;;0.20;;
40847;SDS011;26570;50.962;5.340;2023-07-28T17:35:57;0.85;;;0.20;;
40847;SDS011;26570;50.962;5.340;2023-07-28T17:39:11;1.60;;;0.20;;
40847;SDS011;26570;50.962;5.340;2023-07-28T17:42:33;0.68;;;0.28;;
40847;SDS011;26570;50.962;5.340;2023-07-28T17:45:53;1.70;;;0.30;;
40847;SDS011;26570;50.962;5.340;2023-07-28T17:48:48;0.70;;;0.20;;
40847;SDS011;26570;50.962;5.340;2023-07-28T17:52:12;1.60;;;0.20;;
40847;SDS011;26570;50.962;5.340;2023-07-28T17:55:06;0.63;;;0.30;;
40847;SDS011;26570;50.962;5.340;2023-07-28T17:58:06;1.70;;;0.30;;
40847;SDS011;26570;50.962;5.340;2023-07-28T18:01:24;0.55;;;0.30;;
40847;SDS011;26570;50.962;5.340;2023-07-28T18:04:36;2.08;;;0.22;;
40847;SDS011;26570;50.962;5.340;2023-07-28T18:07:27;4.53;;;0.20;;
40847;SDS011;26570;50.962;5.340;2023-07-28T18:10:51;3.25;;;0.20;;
40847;SDS011;26570;50.962;5.340;2023-07-28T18:13:41;1.10;;;0.20;;
40847;SDS011;26570;50.962;5.340;2023-07-28T18:16:35;1.90;;;0.30;;
40847;SDS011;26570;50.962;5.340;2023-07-28T18:19:38;1.40;;;0.20;;
40847;SDS011;26570;50.962;5.340;2023-07-28T18:26:26;0.57;;;0.30;;
40847;SDS011;26570;50.962;5.340;2023-07-28T18:29:20;0.55;;;0.30;;
40847;SDS011;26570;50.962;5.340;2023-07-28T18:32:32;0.50;;;0.20;;
40847;SDS011;26570;50.962;5.340;2023-07-28T18:35:23;1.70;;;0.30;;
40847;SDS011;26570;50.962;5.340;2023-07-28T18:38:20;0.82;;;0.30;;
40847;SDS011;26570;50.962;5.340;2023-07-28T18:41:13;0.70;;;0.30;;
40847;SDS011;26570;50.962;5.340;2023-07-28T18:44:24;0.43;;;0.20;;
40847;SDS011;26570;50.962;5.340;2023-07-28T18:50:28;1.58;;;0.30;;
40847;SDS011;26570;50.962;5.340;2023-07-28T18:53:57;0.60;;;0.30;;
40847;SDS011;26570;50.962;5.340;2023-07-28T19:01:47;0.52;;;0.22;;
40847;SDS011;26570;50.962;5.340;2023-07-28T19:05:22;1.90;;;0.20;;
40847;SDS011;26570;50.962;5.340;2023-07-28T19:08:35;1.45;;;0.30;;
40847;SDS011;26570;50.962;5.340;2023-07-28T19:14:55;0.63;;;0.30;;
40847;SDS011;26570;50.962;5.340;2023-07-28T19:18:37;0.90;;;0.20;;
40847;SDS011;26570;50.962;5.340;2023-07-28T19:25:27;0.60;;;0.20;;
40847;SDS011;26570;50.962;5.340;2023-07-28T19:31:47;0.85;;;0.20;;
40847;SDS011;26570;50.962;5.340;2023-07-28T19:34:41;1.52;;;0.30;;
40847;SDS011;26570;50.962;5.340;2023-07-28T19:45:21;0.40;;;0.10;;
40847;SDS011;26570;50.962;5.340;2023-07-28T19:49:19;0.82;;;0.10;;
40847;SDS011;26570;50.962;5.340;2023-07-28T19:55:40;0.45;;;0.20;;
40847;SDS011;26570;50.962;5.340;2023-07-28T19:58:55;0.93;;;0.20;;
40847;SDS011;26570;50.962;5.340;2023-07-28T20:01:56;0.30;;;0.10;;
40847;SDS011;26570;50.962;5.340;2023-07-28T20:05:53;0.30;;;0.13;;
40847;SDS011;26570;50.962;5.340;2023-07-28T20:12:03;0.65;;;0.10;;
40847;SDS011;26570;50.962;5.340;2023-07-28T20:15:00;0.45;;;0.17;;
40847;SDS011;26570;50.962;5.340;2023-07-28T20:18:44;0.30;;;0.10;;
40847;SDS011;26570;50.962;5.340;2023-07-28T20:22:06;0.40;;;0.15;;
40847;SDS011;26570;50.962;5.340;2023-07-28T20:24:47;1.10;;;0.20;;
40847;SDS011;26570;50.962;5.340;2023-07-28T20:27:45;0.63;;;0.20;;
40847;SDS011;26570;50.962;5.340;2023-07-28T20:30:37;0.52;;;0.20;;
40847;SDS011;26570;50.962;5.340;2023-07-28T20:33:56;2.05;;;0.17;;
40847;SDS011;26570;50.962;5.340;2023-07-28T20:36:51;1.35;;;0.10;;
40847;SDS011;26570;50.962;5.340;2023-07-28T20:40:09;1.38;;;0.10;;
40847;SDS011;26570;50.962;5.340;2023-07-28T20:43:11;0.50;;;0.20;;
40847;SDS011;26570;50.962;5.340;2023-07-28T20:46:05;0.32;;;0.20;;
40847;SDS011;26570;50.962;5.340;2023-07-28T20:49:21;2.00;;;0.20;;
40847;SDS011;26570;50.962;5.340;2023-07-28T20:52:23;0.73;;;0.20;;
40847;SDS011;26570;50.962;5.340;2023-07-28T20:55:11;2.30;;;0.20;;
40847;SDS011;26570;50.962;5.340;2023-07-28T20:58:13;4.13;;;0.20;;
40847;SDS011;26570;50.962;5.340;2023-07-28T21:01:02;0.30;;;0.20;;
40847;SDS011;26570;50.962;5.340;2023-07-28T21:04:37;1.80;;;0.13;;
40847;SDS011;26570;50.962;5.340;2023-07-28T21:07:48;0.73;;;0.20;;
40847;SDS011;26570;50.962;5.340;2023-07-28T21:11:07;1.00;;;0.20;;
40847;SDS011;26570;50.962;5.340;2023-07-28T21:14:34;2.38;;;0.20;;
40847;SDS011;26570;50.962;5.340;2023-07-28T21:18:07;2.95;;;0.20;;
40847;SDS011;26570;50.962;5.340;2023-07-28T21:21:10;0.40;;;0.20;;
40847;SDS011;26570;50.962;5.340;2023-07-28T21:24:38;3.67;;;0.30;;
40847;SDS011;26570;50.962;5.340;2023-07-28T21:28:14;1.83;;;0.20;;
40847;SDS011;26570;50.962;5.340;2023-07-28T21:32:02;0.70;;;0.20;;
40847;SDS011;26570;50.962;5.340;2023-07-28T21:35:16;1.40;;;0.20;;
40847;SDS011;26570;50.962;5.340;2023-07-28T21:38:45;3.40;;;0.20;;
40847;SDS011;26570;50.962;5.340;2023-07-28T21:41:45;1.48;;;0.20;;
40847;SDS011;26570;50.962;5.340;2023-07-28T21:48:03;2.97;;;0.30;;
40847;SDS011;26570;50.962;5.340;2023-07-28T21:51:21;0.95;;;0.28;;
40847;SDS011;26570;50.962;5.340;2023-07-28T21:54:15;0.70;;;0.20;;
40847;SDS011;26570;50.962;5.340;2023-07-28T21:57:17;1.85;;;0.28;;
40847;SDS011;26570;50.962;5.340;2023-07-28T22:00:52;0.73;;;0.30;;
40847;SDS011;26570;50.962;5.340;2023-07-28T22:03:54;2.13;;;0.30;;
40847;SDS011;26570;50.962;5.340;2023-07-28T22:07:28;0.82;;;0.30;;
40847;SDS011;26570;50.962;5.340;2023-07-28T22:10:47;1.75;;;0.22;;
40847;SDS011;26570;50.962;5.340;2023-07-28T22:14:07;0.70;;;0.22;;
40847;SDS011;26570;50.962;5.340;2023-07-28T22:17:33;0.57;;;0.20;;
40847;SDS011;26570;50.962;5.340;2023-07-28T22:20:41;1.00;;;0.30;;
40847;SDS011;26570;50.962;5.340;2023-07-28T22:23:42;0.68;;;0.20;;
40847;SDS011;26570;50.962;5.340;2023-07-28T22:26:39;1.23;;;0.28;;
40847;SDS011;26570;50.962;5.340;2023-07-28T22:29:33;1.08;;;0.38;;
40847;SDS011;26570;50.962;5.340;2023-07-28T22:36:26;1.52;;;0.20;;
40847;SDS011;26570;50.962;5.340;2023-07-28T22:43:24;2.35;;;0.30;;
40847;SDS011;26570;50.962;5.340;2023-07-28T22:46:14;0.55;;;0.22;;
40847;SDS011;26570;50.962;5.340;2023-07-28T22:49:55;1.85;;;0.30;;
40847;SDS011;26570;50.962;5.340;2023-07-28T22:53:36;1.95;;;0.30;;
40847;SDS011;26570;50.962;5.340;2023-07-28T22:56:30;1.75;;;0.20;;
40847;SDS011;26570;50.962;5.340;2023-07-28T22:59:51;0.98;;;0.20;;
